createdAt,value
2018-11-14T00:00:32.375Z,21.35
2018-11-14T00:03:01.588Z,21.35
2018-11-14T00:05:29.654Z,21.35
2018-11-14T00:07:58.537Z,21.34
2018-11-14T00:10:26.551Z,21.33
2018-11-14T00:12:54.606Z,21.33
2018-11-14T00:15:23.910Z,21.32
2018-11-14T00:17:52.292Z,21.30
2018-11-14T00:20:20.395Z,21.30
2018-11-14T00:22:49.322Z,21.29
2018-11-14T00:25:17.503Z,21.29
2018-11-14T00:27:45.554Z,21.27
2018-11-14T00:30:15.729Z,21.28
2018-11-14T00:32:43.930Z,21.27
2018-11-14T00:35:12.342Z,21.25
2018-11-14T00:37:40.601Z,21.24
2018-11-14T00:40:09.975Z,21.24
2018-11-14T00:42:38.061Z,21.22
2018-11-14T00:45:07.591Z,21.21
2018-11-14T00:47:35.666Z,21.20
2018-11-14T00:50:03.952Z,21.18
2018-11-14T00:52:32.084Z,21.17
2018-11-14T00:55:00.203Z,21.16
2018-11-14T00:57:28.332Z,21.17
2018-11-14T00:59:56.531Z,21.15
2018-11-14T01:02:24.641Z,21.14
2018-11-14T01:04:52.765Z,21.13
2018-11-14T01:07:20.949Z,21.13
2018-11-14T01:09:49.074Z,21.11
2018-11-14T01:12:17.216Z,21.10
2018-11-14T01:14:45.336Z,21.10
2018-11-14T01:17:13.509Z,21.09
2018-11-14T01:19:41.524Z,21.08
2018-11-14T01:22:09.608Z,21.06
2018-11-14T01:24:37.684Z,21.06
2018-11-14T01:27:05.805Z,21.05
2018-11-14T01:29:33.965Z,21.04
2018-11-14T01:32:02.081Z,21.03
2018-11-14T01:34:30.197Z,21.01
2018-11-14T01:36:58.357Z,21.00
2018-11-14T01:39:26.438Z,21.00
2018-11-14T01:41:54.581Z,21.00
2018-11-14T01:44:22.781Z,20.98
2018-11-14T01:46:50.898Z,20.97
2018-11-14T01:49:19.037Z,20.97
2018-11-14T01:51:47.128Z,20.95
2018-11-14T01:54:15.244Z,20.95
2018-11-14T01:56:43.412Z,20.94
2018-11-14T01:59:11.499Z,20.92
2018-11-14T02:01:39.567Z,20.92
2018-11-14T02:04:07.685Z,20.90
2018-11-14T02:06:35.797Z,20.91
2018-11-14T02:09:04.956Z,20.90
2018-11-14T02:11:33.096Z,20.89
2018-11-14T02:14:01.240Z,20.89
2018-11-14T02:16:29.296Z,20.87
2018-11-14T02:18:57.364Z,20.86
2018-11-14T02:21:25.407Z,20.86
2018-11-14T02:23:53.497Z,20.85
2018-11-14T02:26:21.530Z,20.84
2018-11-14T02:28:50.973Z,20.83
2018-11-14T02:31:19.103Z,20.83
2018-11-14T02:33:47.177Z,20.81
2018-11-14T02:36:15.256Z,20.81
2018-11-14T02:38:43.338Z,20.81
2018-11-14T02:41:11.452Z,20.81
2018-11-14T02:43:39.510Z,20.79
2018-11-14T02:46:07.570Z,20.79
2018-11-14T02:48:35.596Z,20.78
2018-11-14T02:51:14.826Z,20.76
2018-11-14T02:53:43.002Z,20.76
2018-11-14T02:56:11.636Z,20.76
2018-11-14T02:58:39.690Z,20.75
2018-11-14T03:01:08.144Z,20.74
2018-11-14T03:03:36.468Z,20.73
2018-11-14T03:06:04.682Z,20.71
2018-11-14T03:08:32.832Z,20.71
2018-11-14T03:11:00.916Z,20.69
2018-11-14T03:13:28.950Z,20.70
2018-11-14T03:15:57.078Z,20.68
2018-11-14T03:18:25.183Z,20.68
2018-11-14T03:20:53.347Z,20.67
2018-11-14T03:23:21.722Z,20.66
2018-11-14T03:25:49.901Z,20.65
2018-11-14T03:28:17.989Z,20.64
2018-11-14T03:30:46.089Z,20.62
2018-11-14T03:33:14.202Z,20.62
2018-11-14T03:35:47.700Z,20.62
2018-11-14T03:38:15.843Z,20.60
2018-11-14T03:40:44.055Z,20.60
2018-11-14T03:43:12.144Z,20.59
2018-11-14T03:45:40.230Z,20.59
2018-11-14T03:48:08.340Z,20.58
2018-11-14T03:50:36.441Z,20.58
2018-11-14T03:53:04.985Z,20.57
2018-11-14T03:55:33.120Z,20.57
2018-11-14T03:58:01.276Z,20.56
2018-11-14T04:00:29.352Z,20.56
2018-11-14T04:02:57.524Z,20.55
2018-11-14T04:05:25.782Z,20.55
2018-11-14T04:07:53.880Z,20.54
2018-11-14T04:10:22.036Z,20.53
2018-11-14T04:12:50.220Z,20.53
2018-11-14T04:15:18.372Z,20.51
2018-11-14T04:17:46.500Z,20.51
2018-11-14T04:20:15.736Z,20.50
2018-11-14T04:22:44.060Z,20.50
2018-11-14T04:25:14.379Z,20.49
2018-11-14T04:27:43.440Z,20.49
2018-11-14T04:30:13.433Z,20.49
2018-11-14T04:32:42.116Z,20.48
2018-11-14T04:35:11.552Z,20.48
2018-11-14T04:37:39.769Z,20.46
2018-11-14T04:40:09.565Z,20.45
2018-11-14T04:42:38.047Z,20.44
2018-11-14T04:45:07.398Z,20.44
2018-11-14T04:47:35.670Z,20.43
2018-11-14T04:50:03.735Z,20.43
2018-11-14T04:52:31.824Z,20.42
2018-11-14T04:54:59.914Z,20.41
2018-11-14T04:57:27.951Z,20.39
2018-11-14T04:59:56.051Z,20.39
2018-11-14T05:02:24.202Z,20.38
2018-11-14T05:04:52.213Z,20.37
2018-11-14T05:07:20.264Z,20.36
2018-11-14T05:09:48.339Z,20.35
2018-11-14T05:12:16.415Z,20.36
2018-11-14T05:14:44.525Z,20.36
2018-11-14T05:17:12.565Z,20.34
2018-11-14T05:19:40.660Z,20.34
2018-11-14T05:22:08.711Z,20.32
2018-11-14T05:24:36.883Z,20.31
2018-11-14T05:27:05.046Z,20.31
2018-11-14T05:29:33.175Z,20.31
2018-11-14T05:32:01.285Z,20.29
2018-11-14T05:34:29.298Z,20.29
2018-11-14T05:36:57.460Z,20.30
2018-11-14T05:39:25.587Z,20.29
2018-11-14T05:41:53.628Z,20.29
2018-11-14T05:44:21.728Z,20.28
2018-11-14T05:46:49.792Z,20.27
2018-11-14T05:49:18.016Z,20.27
2018-11-14T05:51:46.071Z,20.27
2018-11-14T05:54:14.100Z,20.26
2018-11-14T05:56:42.147Z,20.27
2018-11-14T05:59:10.193Z,20.27
2018-11-14T06:01:38.272Z,20.26
2018-11-14T06:04:06.620Z,20.26
2018-11-14T06:06:34.693Z,20.24
2018-11-14T06:09:02.814Z,20.24
2018-11-14T06:11:30.872Z,20.23
2018-11-14T06:13:58.952Z,20.24
2018-11-14T06:16:26.988Z,20.23
2018-11-14T06:18:55.098Z,20.22
2018-11-14T06:21:23.190Z,20.23
2018-11-14T06:23:51.265Z,20.22
2018-11-14T06:26:20.212Z,20.22
2018-11-14T06:28:48.308Z,20.22
2018-11-14T06:31:16.372Z,20.22
2018-11-14T06:33:44.461Z,20.20
2018-11-14T06:36:12.551Z,20.20
2018-11-14T06:38:40.620Z,20.20
2018-11-14T06:41:08.704Z,20.19
2018-11-14T06:43:36.842Z,20.19
2018-11-14T06:46:05.174Z,20.18
2018-11-14T06:48:33.266Z,20.18
2018-11-14T06:51:01.340Z,20.16
2018-11-14T06:53:29.390Z,20.17
2018-11-14T06:55:57.464Z,20.15
2018-11-14T06:58:25.513Z,20.16
2018-11-14T07:00:53.584Z,20.15
2018-11-14T07:03:22.104Z,20.14
2018-11-14T07:05:50.229Z,20.17
2018-11-14T07:08:18.187Z,20.19
2018-11-14T07:10:46.638Z,20.21
2018-11-14T07:13:14.673Z,20.24
2018-11-14T07:15:43.268Z,20.29
2018-11-14T07:18:12.077Z,20.33
2018-11-14T07:20:41.428Z,20.38
2018-11-14T07:23:09.511Z,20.45
2018-11-14T07:25:37.608Z,20.50
2018-11-14T07:28:05.758Z,20.55
2018-11-14T07:30:34.512Z,20.59
2018-11-14T07:33:07.987Z,20.63
2018-11-14T07:35:36.140Z,20.67
2018-11-14T07:38:47.792Z,20.71
2018-11-14T07:41:17.362Z,20.76
2018-11-14T07:43:45.532Z,20.74
2018-11-14T07:46:14.064Z,20.79
2018-11-14T07:48:42.392Z,20.83
2018-11-14T07:51:10.597Z,20.86
2018-11-14T07:53:38.763Z,20.90
2018-11-14T07:56:06.835Z,20.93
2018-11-14T07:58:34.932Z,20.96
2018-11-14T08:01:03.049Z,20.98
2018-11-14T08:03:31.171Z,20.99
2018-11-14T08:05:59.401Z,21.03
2018-11-14T08:08:27.581Z,21.05
2018-11-14T08:10:55.655Z,21.06
2018-11-14T08:13:26.910Z,21.07
2018-11-14T08:15:56.744Z,21.10
2018-11-14T08:18:25.163Z,21.14
2018-11-14T08:20:53.377Z,21.12
2018-11-14T08:23:21.489Z,21.16
2018-11-14T08:25:49.664Z,21.16
2018-11-14T08:28:17.829Z,21.19
2018-11-14T08:30:46.370Z,21.20
2018-11-14T08:33:14.459Z,21.21
2018-11-14T08:35:42.660Z,21.24
2018-11-14T08:38:10.896Z,21.26
2018-11-14T08:40:39.073Z,21.29
2018-11-14T08:43:07.485Z,21.32
2018-11-14T08:45:35.804Z,21.34
2018-11-14T08:48:04.311Z,21.38
2018-11-14T08:50:32.447Z,21.45
2018-11-14T08:53:00.658Z,21.48
2018-11-14T08:55:28.800Z,21.48
2018-11-14T08:57:57.005Z,21.51
2018-11-14T09:00:26.110Z,21.51
2018-11-14T09:02:54.539Z,21.51
2018-11-14T09:05:22.854Z,21.47
2018-11-14T09:07:51.269Z,21.45
2018-11-14T09:10:21.504Z,21.47
2018-11-14T09:12:49.913Z,21.47
2018-11-14T09:15:19.409Z,21.47
2018-11-14T09:17:47.660Z,21.46
2018-11-14T09:20:17.192Z,21.45
2018-11-14T09:22:45.424Z,21.45
2018-11-14T09:25:15.371Z,21.46
2018-11-14T09:27:44.381Z,21.46
2018-11-14T09:30:14.759Z,21.46
2018-11-14T09:32:42.964Z,21.45
2018-11-14T09:35:12.386Z,21.43
2018-11-14T09:37:40.806Z,21.41
2018-11-14T09:40:09.996Z,21.38
2018-11-14T09:42:38.518Z,21.37
2018-11-14T09:45:08.280Z,21.35
2018-11-14T09:47:36.584Z,21.33
2018-11-14T09:50:05.754Z,21.31
2018-11-14T09:52:33.942Z,21.34
2018-11-14T09:55:02.069Z,21.32
2018-11-14T09:57:30.240Z,21.33
2018-11-14T09:59:58.362Z,21.33
2018-11-14T10:02:26.537Z,21.33
2018-11-14T10:04:54.723Z,21.34
2018-11-14T10:07:22.847Z,21.34
2018-11-14T10:09:50.922Z,21.34
2018-11-14T10:12:19.020Z,21.33
2018-11-14T10:14:47.204Z,21.37
2018-11-14T10:17:15.368Z,21.39
2018-11-14T10:19:43.581Z,21.41
2018-11-14T10:22:11.660Z,21.42
2018-11-14T10:24:40.204Z,21.43
2018-11-14T10:27:08.294Z,21.46
2018-11-14T10:29:36.386Z,21.47
2018-11-14T10:32:04.621Z,21.51
2018-11-14T10:34:32.780Z,21.53
2018-11-14T10:37:00.916Z,21.54
2018-11-14T10:39:29.056Z,21.57
2018-11-14T10:41:57.163Z,21.58
2018-11-14T10:44:25.249Z,21.57
2018-11-14T10:46:53.366Z,21.54
2018-11-14T10:49:21.440Z,21.55
2018-11-14T10:51:49.543Z,21.53
2018-11-14T10:54:17.631Z,21.53
2018-11-14T10:56:45.675Z,21.51
2018-11-14T10:59:13.730Z,21.50
2018-11-14T11:01:47.715Z,21.50
2018-11-14T11:04:21.148Z,21.54
2018-11-14T11:06:54.489Z,21.53
2018-11-14T11:09:27.958Z,21.50
2018-11-14T11:12:01.445Z,21.52
2018-11-14T11:14:32.150Z,21.57
2018-11-14T11:17:05.516Z,21.59
2018-11-14T11:19:33.617Z,21.61
2018-11-14T11:22:01.670Z,21.65
2018-11-14T11:24:29.740Z,21.68
2018-11-14T11:26:57.904Z,21.74
2018-11-14T11:29:26.023Z,21.76
2018-11-14T11:31:54.201Z,21.78
2018-11-14T11:34:22.348Z,21.83
2018-11-14T11:36:50.404Z,21.86
2018-11-14T11:39:19.305Z,21.90
2018-11-14T11:41:47.709Z,21.93
2018-11-14T11:44:15.868Z,21.97
2018-11-14T11:46:44.498Z,21.99
2018-11-14T11:49:12.815Z,22.02
2018-11-14T11:51:40.879Z,22.05
2018-11-14T11:54:09.218Z,22.09
2018-11-14T11:56:37.655Z,22.13
2018-11-14T11:59:06.414Z,22.16
2018-11-14T12:01:34.712Z,22.20
2018-11-14T12:04:02.751Z,22.22
2018-11-14T12:06:30.944Z,22.24
2018-11-14T12:08:58.947Z,22.27
2018-11-14T12:11:27.107Z,22.31
2018-11-14T12:13:55.366Z,22.31
2018-11-14T12:16:23.458Z,22.32
2018-11-14T12:18:51.528Z,22.36
2018-11-14T12:21:19.572Z,22.38
2018-11-14T12:23:47.718Z,22.40
2018-11-14T12:26:15.854Z,22.42
2018-11-14T12:28:44.133Z,22.44
2018-11-14T12:31:12.397Z,22.44
2018-11-14T12:33:40.339Z,22.45
2018-11-14T12:36:08.433Z,22.45
2018-11-14T12:38:36.543Z,22.44
2018-11-14T12:41:04.715Z,22.45
2018-11-14T12:43:32.831Z,22.46
2018-11-14T12:46:00.895Z,22.46
2018-11-14T12:48:29.533Z,22.45
2018-11-14T12:50:57.666Z,22.45
2018-11-14T12:53:25.761Z,22.47
2018-11-14T12:55:53.922Z,22.49
2018-11-14T12:58:22.076Z,22.49
2018-11-14T13:00:50.835Z,22.49
2018-11-14T13:03:19.000Z,22.48
2018-11-14T13:05:47.170Z,22.49
2018-11-14T13:08:15.215Z,22.48
2018-11-14T13:10:43.410Z,22.47
2018-11-14T13:13:11.546Z,22.48
2018-11-14T13:15:39.613Z,22.47
2018-11-14T13:18:07.685Z,22.45
2018-11-14T13:20:35.768Z,22.43
2018-11-14T13:23:03.820Z,22.41
2018-11-14T13:25:31.888Z,22.37
2018-11-14T13:27:59.978Z,22.34
2018-11-14T13:30:28.034Z,22.32
2018-11-14T13:32:56.080Z,22.31
2018-11-14T13:35:24.610Z,22.29
2018-11-14T13:37:52.773Z,22.27
2018-11-14T13:40:20.969Z,22.24
2018-11-14T13:42:49.141Z,22.24
2018-11-14T13:45:18.020Z,22.25
2018-11-14T13:47:46.116Z,22.23
2018-11-14T13:50:18.406Z,22.20
2018-11-14T13:52:46.282Z,22.17
2018-11-14T13:55:15.672Z,22.16
2018-11-14T13:57:44.871Z,22.17
2018-11-14T14:00:14.129Z,22.16
2018-11-14T14:02:42.903Z,22.15
2018-11-14T14:05:12.888Z,22.14
2018-11-14T14:07:40.976Z,22.13
2018-11-14T14:10:10.114Z,22.11
2018-11-14T14:12:38.274Z,22.09
2018-11-14T14:15:08.677Z,22.07
2018-11-14T14:17:36.730Z,22.06
2018-11-14T14:20:05.679Z,22.04
2018-11-14T14:22:33.788Z,22.04
2018-11-14T14:25:01.870Z,22.00
2018-11-14T14:27:29.941Z,21.98
2018-11-14T14:29:58.009Z,21.97
2018-11-14T14:32:26.520Z,21.95
2018-11-14T14:34:54.684Z,21.95
2018-11-14T14:37:22.867Z,21.95
2018-11-14T14:39:50.949Z,21.93
2018-11-14T14:42:19.013Z,21.90
2018-11-14T14:44:47.112Z,21.83
2018-11-14T14:47:15.268Z,21.66
2018-11-14T14:49:43.456Z,21.50
2018-11-14T14:52:11.547Z,21.25
2018-11-14T14:54:39.675Z,21.36
2018-11-14T14:57:07.765Z,21.42
2018-11-14T14:59:35.981Z,21.47
2018-11-14T15:02:04.189Z,21.49
2018-11-14T15:04:32.390Z,21.52
2018-11-14T15:07:00.508Z,21.55
2018-11-14T15:09:29.453Z,21.56
2018-11-14T15:11:57.542Z,21.58
2018-11-14T15:14:25.604Z,21.59
2018-11-14T15:16:53.733Z,21.60
2018-11-14T15:19:21.793Z,21.63
2018-11-14T15:21:49.895Z,21.60
2018-11-14T15:24:18.103Z,21.56
2018-11-14T15:26:46.361Z,21.56
2018-11-14T15:29:14.526Z,21.62
2018-11-14T15:31:42.797Z,21.66
2018-11-14T15:34:10.948Z,21.66
2018-11-14T15:36:39.158Z,21.68
2018-11-14T15:39:08.890Z,21.71
2018-11-14T15:41:37.782Z,21.73
2018-11-14T15:44:05.907Z,21.74
2018-11-14T15:46:34.084Z,21.76
2018-11-14T15:49:02.615Z,21.78
2018-11-14T15:51:30.867Z,21.80
2018-11-14T15:53:59.128Z,21.81
2018-11-14T15:56:27.573Z,21.85
2018-11-14T15:58:55.659Z,21.87
2018-11-14T16:01:23.823Z,21.89
2018-11-14T16:03:52.517Z,21.93
2018-11-14T16:06:20.686Z,21.95
2018-11-14T16:08:48.747Z,21.97
2018-11-14T16:11:16.808Z,21.98
2018-11-14T16:13:49.064Z,21.98
2018-11-14T16:16:17.174Z,21.99
2018-11-14T16:18:45.260Z,22.02
2018-11-14T16:21:13.309Z,22.03
2018-11-14T16:23:41.498Z,22.05
2018-11-14T16:26:09.569Z,22.08
2018-11-14T16:28:37.889Z,22.10
2018-11-14T16:31:06.440Z,22.12
2018-11-14T16:33:35.864Z,22.15
2018-11-14T16:36:04.234Z,22.17
2018-11-14T16:38:32.345Z,22.19
2018-11-14T16:41:00.416Z,22.22
2018-11-14T16:43:28.564Z,22.24
2018-11-14T16:45:56.680Z,22.27
2018-11-14T16:48:24.752Z,22.29
2018-11-14T16:50:52.876Z,22.32
2018-11-14T16:53:21.039Z,22.35
2018-11-14T16:55:49.320Z,22.38
2018-11-14T16:58:17.371Z,22.38
2018-11-14T17:00:45.440Z,22.41
2018-11-14T17:03:13.548Z,22.42
2018-11-14T17:05:41.636Z,22.45
2018-11-14T17:08:09.735Z,22.46
2018-11-14T17:10:37.975Z,22.49
2018-11-14T17:13:06.212Z,22.50
2018-11-14T17:15:34.258Z,22.53
2018-11-14T17:18:02.593Z,22.55
2018-11-14T17:20:30.768Z,22.54
2018-11-14T17:22:58.860Z,22.57
2018-11-14T17:25:26.978Z,22.59
2018-11-14T17:27:55.172Z,22.58
2018-11-14T17:30:24.739Z,22.60
2018-11-14T17:32:53.260Z,22.60
2018-11-14T17:35:21.349Z,22.62
2018-11-14T17:37:49.733Z,22.62
2018-11-14T17:40:27.976Z,22.64
2018-11-14T17:42:56.169Z,22.62
2018-11-14T17:45:25.747Z,22.62
2018-11-14T17:47:54.293Z,22.62
2018-11-14T17:50:23.780Z,22.62
2018-11-14T17:52:52.953Z,22.61
2018-11-14T17:55:21.801Z,22.61
2018-11-14T17:57:49.903Z,22.61
2018-11-14T18:00:20.248Z,22.61
2018-11-14T18:02:48.523Z,22.61
2018-11-14T18:05:17.780Z,22.60
2018-11-14T18:07:46.501Z,22.59
2018-11-14T18:10:15.753Z,22.58
2018-11-14T18:12:44.704Z,22.58
2018-11-14T18:15:12.996Z,22.58
2018-11-14T18:17:41.641Z,22.57
2018-11-14T18:20:12.012Z,22.58
2018-11-14T18:22:41.605Z,22.60
2018-11-14T18:25:10.100Z,22.59
2018-11-14T18:27:38.186Z,22.57
2018-11-14T18:30:09.093Z,22.56
2018-11-14T18:32:37.065Z,22.57
2018-11-14T18:35:06.964Z,22.55
2018-11-14T18:37:35.054Z,22.54
2018-11-14T18:40:03.218Z,22.54
2018-11-14T18:42:31.304Z,22.56
2018-11-14T18:45:00.120Z,22.60
2018-11-14T18:47:28.546Z,22.61
2018-11-14T18:49:56.904Z,22.60
2018-11-14T18:52:25.022Z,22.61
2018-11-14T18:54:53.116Z,22.60
2018-11-14T18:57:21.413Z,22.61
2018-11-14T18:59:49.594Z,22.61
2018-11-14T19:02:17.772Z,22.61
2018-11-14T19:04:45.934Z,22.62
2018-11-14T19:07:14.016Z,22.61
2018-11-14T19:09:42.201Z,22.62
2018-11-14T19:12:10.298Z,22.62
2018-11-14T19:14:38.468Z,22.63
2018-11-14T19:17:06.601Z,22.63
2018-11-14T19:19:34.832Z,22.62
2018-11-14T19:22:02.984Z,22.60
2018-11-14T19:24:31.168Z,22.61
2018-11-14T19:26:59.317Z,22.60
2018-11-14T19:29:27.516Z,22.59
2018-11-14T19:31:55.671Z,22.60
2018-11-14T19:34:23.988Z,22.61
2018-11-14T19:36:52.206Z,22.60
2018-11-14T19:39:20.292Z,22.59
2018-11-14T19:41:48.496Z,22.58
2018-11-14T19:44:16.828Z,22.56
2018-11-14T19:46:44.891Z,22.55
2018-11-14T19:49:13.286Z,22.54
2018-11-14T19:51:41.446Z,22.54
2018-11-14T19:54:09.600Z,22.53
2018-11-14T19:56:37.740Z,22.52
2018-11-14T19:59:05.940Z,22.51
2018-11-14T20:01:33.983Z,22.49
2018-11-14T20:04:02.077Z,22.46
2018-11-14T20:06:30.197Z,22.45
2018-11-14T20:08:58.457Z,22.46
2018-11-14T20:11:26.572Z,22.44
2018-11-14T20:13:54.754Z,22.43
2018-11-14T20:16:22.963Z,22.41
2018-11-14T20:18:51.105Z,22.39
2018-11-14T20:21:19.338Z,22.37
2018-11-14T20:23:47.597Z,22.38
2018-11-14T20:26:15.734Z,22.37
2018-11-14T20:28:43.904Z,22.34
2018-11-14T20:31:12.069Z,22.32
2018-11-14T20:33:40.199Z,22.30
2018-11-14T20:36:08.344Z,22.27
2018-11-14T20:38:36.446Z,22.26
2018-11-14T20:41:04.676Z,22.24
2018-11-14T20:43:32.907Z,22.24
2018-11-14T20:46:00.969Z,22.23
2018-11-14T20:48:29.060Z,22.21
2018-11-14T20:50:57.209Z,22.19
2018-11-14T20:53:25.565Z,22.17
2018-11-14T20:55:53.702Z,22.14
2018-11-14T20:58:21.756Z,22.13
2018-11-14T21:00:49.908Z,22.11
2018-11-14T21:03:18.023Z,22.09
2018-11-14T21:05:46.226Z,22.06
2018-11-14T21:08:14.320Z,22.04
2018-11-14T21:10:42.411Z,22.00
2018-11-14T21:13:10.499Z,21.98
2018-11-14T21:15:39.608Z,21.96
2018-11-14T21:18:08.012Z,21.94
2018-11-14T21:20:36.196Z,21.93
2018-11-14T21:23:04.428Z,21.90
2018-11-14T21:25:32.510Z,21.87
2018-11-14T21:28:00.584Z,21.85
2018-11-14T21:30:29.413Z,21.82
2018-11-14T21:32:57.488Z,21.80
2018-11-14T21:35:29.056Z,21.77
2018-11-14T21:37:59.185Z,21.76
2018-11-14T21:40:27.443Z,21.75
2018-11-14T21:42:55.677Z,21.74
2018-11-14T21:45:24.920Z,21.72
2018-11-14T21:47:58.788Z,21.68
2018-11-14T21:50:27.836Z,21.66
2018-11-14T21:52:56.033Z,21.65
2018-11-14T21:55:24.147Z,21.64
2018-11-14T21:57:52.226Z,21.63
2018-11-14T22:00:22.603Z,21.60
2018-11-14T22:02:51.903Z,21.60
2018-11-14T22:05:19.995Z,21.56
2018-11-14T22:07:48.041Z,21.56
2018-11-14T22:10:19.302Z,21.55
2018-11-14T22:12:47.775Z,21.52
2018-11-14T22:15:16.988Z,21.52
2018-11-14T22:17:45.135Z,21.50
2018-11-14T22:20:14.307Z,21.50
2018-11-14T22:22:43.133Z,21.47
2018-11-14T22:25:12.156Z,21.47
2018-11-14T22:27:40.377Z,21.45
2018-11-14T22:30:10.478Z,21.44
2018-11-14T22:32:38.548Z,21.42
2018-11-14T22:35:07.741Z,21.41
2018-11-14T22:37:35.768Z,21.39
2018-11-14T22:40:04.051Z,21.37
2018-11-14T22:42:32.189Z,21.37
2018-11-14T22:45:00.345Z,21.35
2018-11-14T22:47:28.424Z,21.35
2018-11-14T22:49:57.259Z,21.35
2018-11-14T22:52:25.289Z,21.31
2018-11-14T22:54:53.422Z,21.31
2018-11-14T22:57:21.520Z,21.31
2018-11-14T22:59:49.575Z,21.28
2018-11-14T23:02:17.654Z,21.27
2018-11-14T23:04:45.743Z,21.27
2018-11-14T23:07:13.835Z,21.26
2018-11-14T23:09:41.932Z,21.26
2018-11-14T23:12:09.993Z,21.23
2018-11-14T23:14:38.042Z,21.23
2018-11-14T23:17:06.262Z,21.23
2018-11-14T23:19:34.354Z,21.22
2018-11-14T23:22:02.432Z,21.20
2018-11-14T23:24:30.500Z,21.20
2018-11-14T23:26:59.092Z,21.18
2018-11-14T23:29:27.131Z,21.19
2018-11-14T23:31:55.187Z,21.16
2018-11-14T23:34:23.297Z,21.15
2018-11-14T23:36:51.372Z,21.15
2018-11-14T23:39:19.490Z,21.16
2018-11-14T23:41:47.566Z,21.15
2018-11-14T23:44:15.622Z,21.12
2018-11-14T23:46:43.677Z,21.11
2018-11-14T23:49:11.761Z,21.11
2018-11-14T23:51:39.822Z,21.10
2018-11-14T23:54:07.850Z,21.09
2018-11-14T23:56:35.900Z,21.09
2018-11-14T23:59:03.946Z,21.08
